Miami, New Mexico
Current Conditions -  °F | °C
As of 12:15 AM on Friday 31 Oct 2014 (Local Time) from KAXX Reporting Station
Clear Clear  
Wind Chill: 26°   Ceiling: Unl
Heat Index: 26°   Visibility: 10mi
Dew Point: 18°   Wind: 0mph
Humidity: 73%   Direction: NA
Pressure: 30.51"   Gusts: NA
Location:  36.35°N, 104.8°W
Report Text: KAXX 310615Z AUTO 00000KT 10SM CLR M03/M08 A3051 RMK AO2 T10351077
Loading
Personal Weather Stations






























Interactive Weather Map
Tropical Storm Tracking
New forecast layout! Learn more

10-Day Weather Forecast

Advertisements
Track Severe Weather on mobile